createdAt,value
2019-01-11T00:00:13.415Z,303.31
2019-01-11T00:01:13.381Z,303.78
2019-01-11T00:02:13.374Z,303.28
2019-01-11T00:03:13.343Z,303.41
2019-01-11T00:04:13.342Z,302.80
2019-01-11T00:05:13.360Z,303.28
2019-01-11T00:06:13.354Z,302.94
2019-01-11T00:07:13.296Z,303.41
2019-01-11T00:08:13.370Z,303.53
2019-01-11T00:09:13.294Z,303.77
2019-01-11T00:10:13.302Z,303.40
2019-01-11T00:11:13.280Z,302.89
2019-01-11T00:12:13.268Z,303.57
2019-01-11T00:13:13.244Z,303.22
2019-01-11T00:14:13.243Z,303.07
2019-01-11T00:15:13.237Z,303.10
2019-01-11T00:16:13.229Z,303.92
2019-01-11T00:17:13.236Z,303.38
2019-01-11T00:18:13.239Z,302.99
2019-01-11T00:19:13.196Z,302.44
2019-01-11T00:20:13.193Z,303.02
2019-01-11T00:21:13.167Z,302.81
2019-01-11T00:22:13.163Z,303.07
2019-01-11T00:23:13.736Z,302.83
2019-01-11T00:24:13.145Z,303.50
2019-01-11T00:25:13.161Z,303.39
2019-01-11T00:26:13.126Z,303.03
2019-01-11T00:27:13.120Z,303.46
2019-01-11T00:28:13.121Z,303.30
2019-01-11T00:29:13.092Z,302.76
2019-01-11T00:30:13.162Z,303.32
2019-01-11T00:31:13.064Z,303.02
2019-01-11T00:32:13.048Z,302.75
2019-01-11T00:33:13.042Z,302.79
2019-01-11T00:34:13.037Z,303.17
2019-01-11T00:35:13.069Z,302.99
2019-01-11T00:36:13.024Z,302.88
2019-01-11T00:37:12.982Z,302.95
2019-01-11T00:38:12.985Z,302.62
2019-01-11T00:39:12.986Z,302.64
2019-01-11T00:40:12.976Z,302.75
2019-01-11T00:41:21.069Z,302.65
2019-01-11T00:42:20.196Z,302.83
2019-01-11T00:43:15.185Z,302.57
2019-01-11T00:44:12.983Z,303.05
2019-01-11T00:45:12.932Z,303.16
2019-01-11T00:46:13.787Z,302.91
2019-01-11T00:47:12.903Z,302.59
2019-01-11T00:48:12.905Z,302.43
2019-01-11T00:49:13.720Z,302.75
2019-01-11T00:50:12.870Z,303.33
2019-01-11T00:51:12.849Z,302.97
2019-01-11T00:52:12.843Z,302.50
2019-01-11T00:53:12.834Z,302.42
2019-01-11T00:54:12.835Z,303.04
2019-01-11T00:55:12.854Z,302.88
2019-01-11T00:56:12.843Z,302.75
2019-01-11T00:57:12.863Z,303.29
2019-01-11T00:58:13.743Z,303.20
2019-01-11T00:59:12.893Z,303.40
2019-01-11T01:00:12.799Z,303.15
2019-01-11T01:01:12.765Z,303.44
2019-01-11T01:02:12.744Z,302.45
2019-01-11T01:03:12.747Z,302.41
2019-01-11T01:04:12.743Z,302.52
2019-01-11T01:05:12.746Z,303.08
2019-01-11T01:06:12.692Z,303.08
2019-01-11T01:07:12.691Z,302.56
2019-01-11T01:08:12.677Z,302.90
2019-01-11T01:09:12.688Z,302.83
2019-01-11T01:10:12.690Z,302.76
2019-01-11T01:11:12.672Z,302.59
2019-01-11T01:12:12.620Z,303.25
2019-01-11T01:13:12.611Z,302.87
2019-01-11T01:14:13.315Z,303.91
2019-01-11T01:15:12.624Z,303.52
2019-01-11T01:16:12.613Z,303.43
2019-01-11T01:17:12.584Z,303.27
2019-01-11T01:18:12.552Z,303.25
2019-01-11T01:19:12.590Z,303.00
2019-01-11T01:20:12.601Z,303.78
2019-01-11T01:21:12.549Z,303.13
2019-01-11T01:22:12.542Z,303.76
2019-01-11T01:23:12.517Z,303.46
2019-01-11T01:24:12.503Z,303.75
2019-01-11T01:25:12.528Z,303.71
2019-01-11T01:26:12.490Z,303.58
2019-01-11T01:27:12.507Z,304.52
2019-01-11T01:28:12.491Z,304.25
2019-01-11T01:29:12.458Z,304.01
2019-01-11T01:30:12.510Z,303.91
2019-01-11T01:31:12.426Z,304.58
2019-01-11T01:32:12.428Z,304.38
2019-01-11T01:33:12.413Z,304.03
2019-01-11T01:34:12.423Z,304.19
2019-01-11T01:35:12.409Z,304.09
2019-01-11T01:36:12.391Z,304.37
2019-01-11T01:37:12.371Z,303.97
2019-01-11T01:38:12.367Z,304.16
2019-01-11T01:39:12.367Z,304.40
2019-01-11T01:40:12.373Z,304.00
2019-01-11T01:41:12.340Z,304.49
2019-01-11T01:42:12.332Z,303.37
2019-01-11T01:43:13.282Z,304.29
2019-01-11T01:44:12.305Z,304.53
2019-01-11T01:45:12.284Z,304.49
2019-01-11T01:46:12.284Z,304.83
2019-01-11T01:47:19.364Z,304.55
2019-01-11T01:48:21.342Z,303.49
2019-01-11T01:49:19.346Z,303.35
2019-01-11T01:50:19.332Z,304.57
2019-01-11T01:51:20.305Z,304.08
2019-01-11T01:52:19.299Z,304.74
2019-01-11T01:53:19.296Z,304.65
2019-01-11T01:54:19.380Z,304.35
2019-01-11T01:55:19.275Z,304.33
2019-01-11T01:56:20.306Z,303.77
2019-01-11T01:57:19.249Z,303.74
2019-01-11T01:58:19.227Z,303.59
2019-01-11T01:59:19.234Z,303.46
2019-01-11T02:00:20.325Z,303.84
2019-01-11T02:01:12.185Z,303.47
2019-01-11T02:02:12.103Z,303.98
2019-01-11T02:03:12.158Z,304.15
2019-01-11T02:04:12.087Z,303.40
2019-01-11T02:05:12.080Z,304.09
2019-01-11T02:06:12.112Z,303.42
2019-01-11T02:07:12.081Z,304.06
2019-01-11T02:08:12.044Z,303.72
2019-01-11T02:09:12.034Z,304.25
2019-01-11T02:10:12.615Z,303.35
2019-01-11T02:11:12.042Z,303.87
2019-01-11T02:12:12.014Z,304.15
2019-01-11T02:13:11.992Z,303.62
2019-01-11T02:14:11.976Z,303.67
2019-01-11T02:15:11.977Z,303.78
2019-01-11T02:16:11.996Z,303.55
2019-01-11T02:17:19.040Z,303.66
2019-01-11T02:18:19.748Z,303.18
2019-01-11T02:19:20.587Z,303.65
2019-01-11T02:20:11.969Z,303.91
2019-01-11T02:21:11.941Z,303.58
2019-01-11T02:22:11.927Z,303.86
2019-01-11T02:23:11.946Z,304.58
2019-01-11T02:24:11.898Z,303.96
2019-01-11T02:25:11.900Z,303.52
2019-01-11T02:26:11.868Z,303.64
2019-01-11T02:27:19.945Z,303.33
2019-01-11T02:28:20.744Z,303.18
2019-01-11T02:29:11.868Z,303.87
2019-01-11T02:30:18.875Z,304.32
2019-01-11T02:31:11.899Z,303.98
2019-01-11T02:32:11.796Z,304.00
2019-01-11T02:33:11.792Z,303.81
2019-01-11T02:34:11.787Z,303.35
2019-01-11T02:35:11.777Z,303.58
2019-01-11T02:36:11.800Z,303.59
2019-01-11T02:37:11.757Z,303.65
2019-01-11T02:38:11.736Z,303.36
2019-01-11T02:39:11.727Z,303.28
2019-01-11T02:40:12.258Z,303.29
2019-01-11T02:41:11.740Z,303.45
2019-01-11T02:42:11.707Z,302.87
2019-01-11T02:43:11.715Z,303.62
2019-01-11T02:44:11.672Z,303.12
2019-01-11T02:45:11.659Z,303.33
2019-01-11T02:46:11.669Z,303.46
2019-01-11T02:47:11.657Z,303.60
2019-01-11T02:48:11.642Z,303.83
2019-01-11T02:49:11.629Z,302.50
2019-01-11T02:50:11.612Z,303.78
2019-01-11T02:51:11.621Z,303.33
2019-01-11T02:52:11.602Z,303.37
2019-01-11T02:53:11.607Z,303.80
2019-01-11T02:54:11.600Z,303.06
2019-01-11T02:55:11.611Z,303.82
2019-01-11T02:56:11.594Z,303.42
2019-01-11T02:57:12.230Z,303.13
2019-01-11T02:58:11.540Z,303.58
2019-01-11T02:59:11.538Z,303.43
2019-01-11T03:00:11.529Z,303.98
2019-01-11T03:01:11.552Z,303.66
2019-01-11T03:02:11.513Z,303.82
2019-01-11T03:03:11.478Z,303.65
2019-01-11T03:04:11.477Z,304.06
2019-01-11T03:05:11.470Z,303.10
2019-01-11T03:06:11.466Z,303.45
2019-01-11T03:07:11.466Z,303.97
2019-01-11T03:08:11.432Z,304.40
2019-01-11T03:09:11.468Z,303.83
2019-01-11T03:10:11.443Z,304.51
2019-01-11T03:11:11.422Z,303.61
2019-01-11T03:12:11.405Z,303.79
2019-01-11T03:13:11.381Z,304.29
2019-01-11T03:14:11.373Z,304.24
2019-01-11T03:15:12.255Z,304.42
2019-01-11T03:16:11.368Z,304.34
2019-01-11T03:17:11.365Z,304.11
2019-01-11T03:18:11.362Z,304.31
2019-01-11T03:19:11.323Z,304.30
2019-01-11T03:20:11.329Z,304.88
2019-01-11T03:21:11.323Z,304.77
2019-01-11T03:22:11.294Z,304.13
2019-01-11T03:23:11.283Z,304.28
2019-01-11T03:24:20.412Z,304.73
2019-01-11T03:25:18.348Z,304.39
2019-01-11T03:26:18.670Z,304.71
2019-01-11T03:27:18.291Z,304.64
2019-01-11T03:28:11.264Z,304.31
2019-01-11T03:29:11.284Z,304.33
2019-01-11T03:30:11.224Z,304.35
2019-01-11T03:31:11.775Z,304.08
2019-01-11T03:32:11.182Z,304.43
2019-01-11T03:33:11.289Z,305.12
2019-01-11T03:34:11.155Z,304.50
2019-01-11T03:35:11.160Z,304.80
2019-01-11T03:36:11.279Z,304.97
2019-01-11T03:37:11.232Z,303.77
2019-01-11T03:38:11.186Z,304.15
2019-01-11T03:39:11.146Z,304.60
2019-01-11T03:40:11.157Z,304.87
2019-01-11T03:41:11.132Z,305.03
2019-01-11T03:42:11.102Z,304.56
2019-01-11T03:43:11.167Z,305.02
2019-01-11T03:44:11.069Z,304.60
2019-01-11T03:45:11.031Z,304.88
2019-01-11T03:46:11.182Z,304.42
2019-01-11T03:47:11.030Z,304.77
2019-01-11T03:48:11.039Z,304.60
2019-01-11T03:49:11.036Z,304.87
2019-01-11T03:50:10.985Z,304.82
2019-01-11T03:51:10.989Z,304.81
2019-01-11T03:52:10.983Z,304.53
2019-01-11T03:53:10.978Z,304.32
2019-01-11T03:54:10.973Z,304.53
2019-01-11T03:55:10.979Z,304.49
2019-01-11T03:56:10.919Z,304.51
2019-01-11T03:57:10.942Z,304.55
2019-01-11T03:58:10.926Z,304.82
2019-01-11T03:59:10.909Z,305.28
2019-01-11T04:00:10.916Z,305.31
2019-01-11T04:01:10.894Z,305.10
2019-01-11T04:02:10.896Z,304.85
2019-01-11T04:03:10.871Z,305.20
2019-01-11T04:04:10.856Z,304.93
2019-01-11T04:05:10.849Z,304.64
2019-01-11T04:06:10.844Z,304.60
2019-01-11T04:07:10.847Z,304.87
2019-01-11T04:08:10.803Z,305.14
2019-01-11T04:09:10.847Z,304.90
2019-01-11T04:10:10.803Z,304.83
2019-01-11T04:11:10.784Z,304.85
2019-01-11T04:12:10.789Z,304.97
2019-01-11T04:13:10.761Z,304.60
2019-01-11T04:14:10.733Z,305.38
2019-01-11T04:15:10.728Z,305.41
2019-01-11T04:16:10.736Z,304.95
2019-01-11T04:17:10.743Z,305.06
2019-01-11T04:18:10.700Z,305.20
2019-01-11T04:19:10.685Z,305.10
2019-01-11T04:20:10.674Z,304.87
2019-01-11T04:21:10.653Z,304.47
2019-01-11T04:22:10.685Z,304.89
2019-01-11T04:23:10.699Z,304.98
2019-01-11T04:24:10.631Z,304.97
2019-01-11T04:25:10.641Z,305.53
2019-01-11T04:26:10.635Z,305.56
2019-01-11T04:27:10.626Z,305.27
2019-01-11T04:28:10.633Z,305.00
2019-01-11T04:29:10.604Z,305.33
2019-01-11T04:30:10.578Z,305.56
2019-01-11T04:31:10.571Z,305.25
2019-01-11T04:32:10.588Z,305.78
2019-01-11T04:33:10.571Z,305.66
2019-01-11T04:34:10.560Z,306.12
2019-01-11T04:35:10.535Z,306.14
2019-01-11T04:36:10.513Z,305.43
2019-01-11T04:37:10.553Z,306.41
2019-01-11T04:38:10.490Z,306.16
2019-01-11T04:39:10.489Z,305.80
2019-01-11T04:40:10.508Z,305.24
2019-01-11T04:41:10.485Z,305.37
2019-01-11T04:42:10.504Z,305.43
2019-01-11T04:43:10.435Z,305.47
2019-01-11T04:44:10.434Z,305.19
2019-01-11T04:45:10.439Z,305.78
2019-01-11T04:46:10.447Z,305.11
2019-01-11T04:47:10.425Z,305.85
2019-01-11T04:48:10.410Z,305.85
2019-01-11T04:49:10.404Z,306.22
2019-01-11T04:50:10.366Z,306.10
2019-01-11T04:51:10.389Z,306.65
2019-01-11T04:52:10.400Z,306.80
2019-01-11T04:53:10.366Z,306.78
2019-01-11T04:54:10.338Z,306.67
2019-01-11T04:55:10.329Z,305.83
2019-01-11T04:56:10.302Z,306.42
2019-01-11T04:57:10.324Z,306.14
2019-01-11T04:58:10.303Z,306.98
2019-01-11T04:59:10.311Z,306.79
2019-01-11T05:00:10.261Z,306.10
2019-01-11T05:01:10.244Z,306.33
2019-01-11T05:02:10.259Z,306.20
2019-01-11T05:03:10.245Z,307.05
2019-01-11T05:04:10.240Z,307.27
2019-01-11T05:05:10.245Z,306.97
2019-01-11T05:06:10.200Z,307.18
2019-01-11T05:07:10.201Z,307.64
2019-01-11T05:08:10.196Z,306.37
2019-01-11T05:09:10.193Z,307.01
2019-01-11T05:10:10.171Z,306.67
2019-01-11T05:11:10.172Z,306.80
2019-01-11T05:12:10.186Z,306.75
2019-01-11T05:13:10.125Z,306.75
2019-01-11T05:14:10.114Z,307.02
2019-01-11T05:15:10.129Z,306.82
2019-01-11T05:16:10.108Z,306.66
2019-01-11T05:17:10.113Z,306.70
2019-01-11T05:18:17.939Z,306.96
2019-01-11T05:19:17.696Z,306.29
2019-01-11T05:20:18.152Z,306.43
2019-01-11T05:21:18.213Z,306.38
2019-01-11T05:22:10.086Z,305.77
2019-01-11T05:23:18.985Z,307.14
2019-01-11T05:24:10.043Z,306.77
2019-01-11T05:25:09.984Z,305.94
2019-01-11T05:26:10.045Z,306.92
2019-01-11T05:27:09.990Z,306.55
2019-01-11T05:28:09.987Z,306.74
2019-01-11T05:29:09.951Z,307.07
2019-01-11T05:30:09.955Z,306.34
2019-01-11T05:31:09.927Z,307.13
2019-01-11T05:32:17.014Z,306.89
2019-01-11T05:33:16.986Z,306.46
2019-01-11T05:34:17.954Z,307.48
2019-01-11T05:35:17.001Z,306.92
2019-01-11T05:36:17.977Z,307.38
2019-01-11T05:37:17.009Z,306.63
2019-01-11T05:38:16.928Z,307.60
2019-01-11T05:39:17.957Z,307.29
2019-01-11T05:40:17.691Z,307.15
2019-01-11T05:41:16.998Z,307.46
2019-01-11T05:42:09.873Z,307.37
2019-01-11T05:43:09.828Z,307.65
2019-01-11T05:44:17.883Z,307.17
2019-01-11T05:45:17.877Z,306.53
2019-01-11T05:46:09.812Z,307.19
2019-01-11T05:47:09.910Z,306.25
2019-01-11T05:48:09.796Z,306.59
2019-01-11T05:49:11.030Z,307.18
2019-01-11T05:50:09.730Z,307.38
2019-01-11T05:51:09.747Z,307.36
2019-01-11T05:52:09.762Z,307.48
2019-01-11T05:53:09.739Z,307.34
2019-01-11T05:54:09.693Z,306.88
2019-01-11T05:55:09.695Z,307.04
2019-01-11T05:56:09.687Z,306.98
2019-01-11T05:57:09.686Z,307.12
2019-01-11T05:58:09.709Z,307.51
2019-01-11T05:59:09.683Z,307.46
2019-01-11T06:00:09.639Z,307.66
2019-01-11T06:01:09.620Z,308.37
2019-01-11T06:02:09.664Z,307.76
2019-01-11T06:03:09.641Z,307.46
2019-01-11T06:04:09.619Z,307.25
2019-01-11T06:05:09.602Z,307.44
2019-01-11T06:06:09.594Z,307.25
2019-01-11T06:07:09.587Z,307.27
2019-01-11T06:08:09.575Z,307.25
2019-01-11T06:09:09.568Z,307.82
2019-01-11T06:11:21.174Z,306.87
2019-01-11T06:12:21.236Z,308.04
2019-01-11T06:13:21.157Z,307.84
2019-01-11T06:14:21.153Z,307.99
2019-01-11T06:15:21.176Z,307.73
2019-01-11T06:16:21.101Z,307.74
2019-01-11T06:17:21.127Z,307.26
2019-01-11T06:18:21.115Z,307.69
2019-01-11T06:19:21.091Z,307.61
2019-01-11T06:20:21.114Z,307.10
2019-01-11T06:21:21.070Z,306.92
2019-01-11T06:22:21.052Z,307.63
2019-01-11T06:23:21.040Z,307.38
2019-01-11T06:24:21.040Z,307.09
2019-01-11T06:25:21.024Z,307.61
2019-01-11T06:26:21.012Z,307.42
2019-01-11T06:27:20.999Z,307.41
2019-01-11T06:28:20.994Z,306.92
2019-01-11T06:29:20.970Z,307.10
2019-01-11T06:30:20.971Z,307.68
2019-01-11T06:31:20.966Z,307.49
2019-01-11T06:32:20.954Z,307.60
2019-01-11T06:33:20.994Z,307.89
2019-01-11T06:34:20.939Z,307.59
2019-01-11T06:35:20.969Z,308.21
2019-01-11T06:36:20.899Z,306.87
2019-01-11T06:37:20.905Z,307.49
2019-01-11T06:38:20.901Z,307.20
2019-01-11T06:39:20.857Z,307.33
2019-01-11T06:40:20.859Z,307.20
2019-01-11T06:41:20.847Z,307.09
2019-01-11T06:42:20.850Z,306.86
2019-01-11T06:43:20.845Z,307.52
2019-01-11T06:44:20.806Z,307.35
2019-01-11T06:45:20.786Z,307.33
2019-01-11T06:46:20.832Z,307.70
2019-01-11T06:47:20.786Z,307.09
2019-01-11T06:48:20.801Z,307.38
2019-01-11T06:49:20.770Z,307.28
2019-01-11T06:50:20.761Z,306.95
2019-01-11T06:51:20.741Z,307.11
2019-01-11T06:52:20.736Z,306.94
2019-01-11T06:53:20.755Z,307.14
2019-01-11T06:54:20.719Z,306.35
2019-01-11T06:55:20.729Z,306.86
2019-01-11T06:56:20.689Z,306.83
2019-01-11T06:57:20.748Z,307.73
2019-01-11T06:58:20.693Z,306.68
2019-01-11T06:59:20.683Z,307.31
2019-01-11T07:00:20.638Z,307.13
2019-01-11T07:01:20.650Z,307.09
2019-01-11T07:02:20.610Z,306.75
2019-01-11T07:03:21.784Z,307.17
2019-01-11T07:04:20.596Z,307.21
2019-01-11T07:05:20.588Z,307.34
2019-01-11T07:06:20.582Z,306.89
2019-01-11T07:07:20.587Z,306.78
2019-01-11T07:08:20.590Z,307.14
2019-01-11T07:09:20.580Z,307.34
2019-01-11T07:10:20.571Z,307.51
2019-01-11T07:11:20.536Z,307.37
2019-01-11T07:12:20.550Z,307.31
2019-01-11T07:13:20.529Z,306.95
2019-01-11T07:14:20.486Z,307.11
2019-01-11T07:15:20.502Z,307.50
2019-01-11T07:16:20.495Z,307.46
2019-01-11T07:17:20.468Z,306.99
2019-01-11T07:18:22.055Z,307.37
2019-01-11T07:19:20.502Z,307.18
2019-01-11T07:20:20.442Z,307.68
2019-01-11T07:21:20.545Z,307.66
2019-01-11T07:22:20.422Z,307.89
2019-01-11T07:23:20.440Z,307.28
2019-01-11T07:24:20.395Z,307.33
2019-01-11T07:25:20.401Z,307.81
2019-01-11T07:26:20.409Z,307.46
2019-01-11T07:27:20.378Z,307.63
2019-01-11T07:28:20.373Z,308.30
2019-01-11T07:29:20.348Z,307.74
2019-01-11T07:30:20.327Z,307.80
2019-01-11T07:31:20.310Z,307.23
2019-01-11T07:32:20.312Z,307.43
2019-01-11T07:33:20.320Z,308.22
2019-01-11T07:34:20.288Z,308.09
2019-01-11T07:35:21.181Z,307.89
2019-01-11T07:36:20.473Z,307.22
2019-01-11T07:37:20.442Z,307.27
2019-01-11T07:38:20.316Z,307.01
2019-01-11T07:39:20.244Z,307.85
2019-01-11T07:40:20.227Z,307.86
2019-01-11T07:41:20.222Z,307.57
2019-01-11T07:42:20.225Z,307.22
2019-01-11T07:43:20.218Z,307.00
2019-01-11T07:44:20.196Z,307.85
2019-01-11T07:45:20.172Z,307.51
2019-01-11T07:46:21.021Z,307.12
2019-01-11T07:47:20.157Z,307.97
2019-01-11T07:48:20.527Z,307.96
2019-01-11T07:49:23.238Z,307.27
2019-01-11T07:50:20.123Z,307.88
2019-01-11T07:51:20.109Z,307.66
2019-01-11T07:52:20.122Z,306.71
2019-01-11T07:53:20.138Z,306.74
2019-01-11T07:54:20.077Z,306.83
2019-01-11T07:55:27.248Z,305.91
2019-01-11T07:56:20.065Z,307.14
2019-01-11T07:57:20.063Z,306.75
2019-01-11T07:58:20.102Z,306.69
2019-01-11T07:59:20.018Z,306.90
2019-01-11T08:00:21.120Z,306.75
2019-01-11T08:01:20.032Z,306.38
2019-01-11T08:02:20.003Z,305.99
2019-01-11T08:03:20.064Z,305.91
2019-01-11T08:04:20.002Z,305.58
2019-01-11T08:05:19.992Z,306.62
2019-01-11T08:06:19.959Z,306.18
2019-01-11T08:07:19.997Z,305.88
2019-01-11T08:08:20.534Z,306.47
2019-01-11T08:09:19.926Z,306.43
2019-01-11T08:10:19.936Z,306.29
2019-01-11T08:11:19.915Z,306.08
2019-01-11T08:12:19.905Z,306.37
2019-01-11T08:13:19.873Z,306.41
2019-01-11T08:14:19.865Z,305.83
2019-01-11T08:15:19.866Z,305.81
2019-01-11T08:16:19.860Z,305.10
2019-01-11T08:17:19.878Z,306.45
2019-01-11T08:18:27.983Z,306.30
2019-01-11T08:19:27.865Z,306.02
2019-01-11T08:20:28.496Z,306.13
2019-01-11T08:21:19.857Z,305.86
2019-01-11T08:22:19.989Z,305.77
2019-01-11T08:23:19.838Z,306.23
2019-01-11T08:24:19.779Z,306.20
2019-01-11T08:25:19.747Z,306.28
2019-01-11T08:26:19.748Z,305.84
2019-01-11T08:27:19.766Z,305.93
2019-01-11T08:28:19.770Z,306.01
2019-01-11T08:29:19.749Z,306.18
2019-01-11T08:30:19.711Z,305.83
2019-01-11T08:31:19.712Z,306.05
2019-01-11T08:32:19.689Z,306.15
2019-01-11T08:33:19.701Z,306.49
2019-01-11T08:34:20.648Z,305.94
2019-01-11T08:35:19.669Z,306.04
2019-01-11T08:36:19.663Z,306.38
2019-01-11T08:37:19.656Z,306.11
2019-01-11T08:38:19.612Z,306.19
2019-01-11T08:39:19.871Z,306.26
2019-01-11T08:40:19.623Z,306.75
2019-01-11T08:41:19.595Z,305.77
2019-01-11T08:42:19.583Z,305.96
2019-01-11T08:43:19.564Z,306.41
2019-01-11T08:44:19.640Z,306.05
2019-01-11T08:45:19.602Z,307.08
2019-01-11T08:46:19.607Z,306.19
2019-01-11T08:47:19.571Z,306.03
2019-01-11T08:48:19.548Z,306.73
2019-01-11T08:49:19.519Z,307.03
2019-01-11T08:50:19.489Z,306.31
2019-01-11T08:51:19.496Z,306.62
2019-01-11T08:52:19.493Z,306.81
2019-01-11T08:53:19.469Z,306.79
2019-01-11T08:54:19.476Z,306.50
2019-01-11T08:55:19.437Z,306.06
2019-01-11T08:56:19.441Z,306.01
2019-01-11T08:57:19.430Z,305.85
2019-01-11T08:58:19.441Z,305.80
2019-01-11T08:59:19.469Z,306.31
2019-01-11T09:00:19.410Z,305.37
2019-01-11T09:01:19.380Z,305.99
2019-01-11T09:02:19.365Z,306.08
2019-01-11T09:03:19.372Z,305.50
2019-01-11T09:04:19.381Z,306.07
2019-01-11T09:05:19.346Z,306.25
2019-01-11T09:06:19.325Z,305.95
2019-01-11T09:07:19.328Z,306.60
2019-01-11T09:08:20.132Z,306.58
2019-01-11T09:09:19.429Z,306.20
2019-01-11T09:10:23.301Z,305.81
2019-01-11T09:11:20.275Z,305.81
2019-01-11T09:12:19.273Z,305.52
2019-01-11T09:13:19.262Z,306.52
2019-01-11T09:14:19.260Z,305.62
2019-01-11T09:15:27.322Z,306.24
2019-01-11T09:16:20.760Z,306.26
2019-01-11T09:17:27.317Z,305.75
2019-01-11T09:18:27.267Z,306.15
2019-01-11T09:19:26.269Z,306.75
2019-01-11T09:20:19.206Z,306.05
2019-01-11T09:21:28.265Z,305.58
2019-01-11T09:22:27.773Z,305.87
2019-01-11T09:23:26.228Z,306.18
2019-01-11T09:24:27.217Z,306.42
2019-01-11T09:25:19.134Z,305.93
2019-01-11T09:26:27.912Z,306.66
2019-01-11T09:28:31.850Z,305.61
2019-01-11T09:29:31.043Z,305.83
2019-01-11T09:30:39.128Z,306.09
2019-01-11T09:31:31.038Z,307.14
2019-01-11T09:32:31.010Z,306.29
2019-01-11T09:33:30.985Z,305.31
2019-01-11T09:34:30.981Z,306.56
2019-01-11T09:35:30.955Z,306.07
2019-01-11T09:36:30.927Z,306.48
2019-01-11T09:37:30.946Z,306.30
2019-01-11T09:38:30.928Z,306.53
2019-01-11T09:39:30.925Z,305.89
2019-01-11T09:40:30.910Z,306.56
2019-01-11T09:41:30.895Z,306.24
2019-01-11T09:42:30.875Z,305.50
2019-01-11T09:43:30.896Z,305.59
2019-01-11T09:44:30.893Z,306.11
2019-01-11T09:45:30.876Z,305.48
2019-01-11T09:46:30.830Z,306.17
2019-01-11T09:47:30.832Z,306.27
2019-01-11T09:48:30.815Z,305.46
2019-01-11T09:49:30.838Z,306.27
2019-01-11T09:50:30.809Z,306.03
2019-01-11T09:51:30.805Z,306.18
2019-01-11T09:52:30.806Z,306.43
2019-01-11T09:53:30.768Z,306.38
2019-01-11T09:54:30.773Z,306.01
2019-01-11T09:55:30.761Z,306.47
2019-01-11T09:56:30.757Z,306.68
2019-01-11T09:57:30.768Z,306.21
2019-01-11T09:58:30.718Z,306.38
2019-01-11T09:59:35.080Z,306.58
2019-01-11T10:00:30.702Z,306.36
2019-01-11T10:01:30.746Z,305.80
2019-01-11T10:02:30.696Z,305.84
2019-01-11T10:03:30.687Z,305.45
2019-01-11T10:04:30.685Z,305.26
2019-01-11T10:05:30.640Z,305.58
2019-01-11T10:06:30.635Z,306.18
2019-01-11T10:07:30.632Z,305.95
2019-01-11T10:08:30.615Z,305.83
2019-01-11T10:09:30.617Z,306.07
2019-01-11T10:10:30.585Z,305.55
2019-01-11T10:11:30.576Z,305.87
2019-01-11T10:12:30.573Z,306.72
2019-01-11T10:13:30.573Z,306.17
2019-01-11T10:14:30.570Z,306.33
2019-01-11T10:15:30.582Z,305.99
2019-01-11T10:16:30.542Z,305.42
2019-01-11T10:17:30.502Z,305.61
2019-01-11T10:18:30.512Z,305.55
2019-01-11T10:19:30.511Z,305.51
2019-01-11T10:20:30.493Z,305.49
2019-01-11T10:21:30.494Z,305.95
2019-01-11T10:22:30.456Z,305.79
2019-01-11T10:23:30.448Z,306.11
2019-01-11T10:24:30.464Z,305.99
2019-01-11T10:25:30.463Z,305.96
2019-01-11T10:26:30.508Z,306.24
2019-01-11T10:27:30.460Z,305.85
2019-01-11T10:28:30.397Z,306.54
2019-01-11T10:29:30.416Z,306.00
2019-01-11T10:30:30.392Z,305.88
2019-01-11T10:31:30.402Z,306.20
2019-01-11T10:32:30.375Z,305.79
2019-01-11T10:33:35.968Z,305.92
2019-01-11T10:34:31.428Z,306.23
2019-01-11T10:35:30.463Z,306.80
2019-01-11T10:36:30.335Z,306.81
2019-01-11T10:37:30.329Z,305.82
2019-01-11T10:38:30.303Z,305.81
2019-01-11T10:39:30.326Z,305.65
2019-01-11T10:40:30.284Z,307.19
2019-01-11T10:41:30.294Z,306.03
2019-01-11T10:42:30.290Z,306.04
2019-01-11T10:43:30.250Z,305.56
2019-01-11T10:44:30.245Z,306.09
2019-01-11T10:45:30.251Z,306.23
2019-01-11T10:46:30.224Z,306.46
2019-01-11T10:47:30.224Z,306.14
2019-01-11T10:48:30.207Z,305.78
2019-01-11T10:49:30.213Z,305.31
2019-01-11T10:50:30.198Z,305.49
2019-01-11T10:51:30.197Z,305.65
2019-01-11T10:52:30.171Z,305.70
2019-01-11T10:53:30.145Z,305.97
2019-01-11T10:54:30.150Z,305.71
2019-01-11T10:55:30.131Z,305.59
2019-01-11T10:56:30.119Z,306.00
2019-01-11T10:57:30.100Z,306.04
2019-01-11T10:58:30.647Z,306.30
2019-01-11T10:59:30.087Z,305.74
2019-01-11T11:00:30.080Z,306.16
2019-01-11T11:01:30.062Z,305.58
2019-01-11T11:02:30.054Z,305.65
2019-01-11T11:03:30.059Z,306.04
2019-01-11T11:04:30.022Z,306.56
2019-01-11T11:05:30.036Z,306.17
2019-01-11T11:06:30.036Z,306.09
2019-01-11T11:07:30.049Z,305.96
2019-01-11T11:08:30.004Z,306.22
2019-01-11T11:09:29.965Z,306.03
2019-01-11T11:10:29.994Z,305.69
2019-01-11T11:11:29.964Z,306.16
2019-01-11T11:12:29.950Z,306.34
2019-01-11T11:13:37.682Z,305.90
2019-01-11T11:14:37.981Z,306.88
2019-01-11T11:15:29.945Z,306.57
2019-01-11T11:16:32.981Z,306.58
2019-01-11T11:17:29.912Z,306.29
2019-01-11T11:18:29.881Z,306.43
2019-01-11T11:19:29.866Z,306.00
2019-01-11T11:20:29.877Z,305.69
2019-01-11T11:21:34.657Z,305.96
2019-01-11T11:22:30.861Z,305.77
2019-01-11T11:23:29.847Z,306.34
2019-01-11T11:24:29.817Z,306.44
2019-01-11T11:25:30.192Z,305.99
2019-01-11T11:26:29.796Z,306.33
2019-01-11T11:27:29.798Z,306.25
2019-01-11T11:28:29.848Z,306.33
2019-01-11T11:29:29.751Z,306.23
2019-01-11T11:30:29.779Z,306.52
2019-01-11T11:31:29.733Z,306.35
2019-01-11T11:32:29.732Z,306.46
2019-01-11T11:33:29.741Z,306.41
2019-01-11T11:34:29.709Z,305.71
2019-01-11T11:35:29.741Z,306.25
2019-01-11T11:36:29.697Z,306.07
2019-01-11T11:37:29.692Z,306.29
2019-01-11T11:38:29.697Z,306.22
2019-01-11T11:39:29.666Z,306.16
2019-01-11T11:40:29.670Z,306.55
2019-01-11T11:41:29.682Z,306.37
2019-01-11T11:42:36.753Z,306.29
2019-01-11T11:43:29.630Z,305.95
2019-01-11T11:44:29.597Z,306.06
2019-01-11T11:45:29.653Z,306.50
2019-01-11T11:46:29.586Z,306.31
2019-01-11T11:47:29.564Z,305.75
2019-01-11T11:48:29.563Z,306.12
2019-01-11T11:49:29.564Z,306.41
2019-01-11T11:50:29.587Z,305.99
2019-01-11T11:51:29.516Z,306.31
2019-01-11T11:52:29.522Z,306.27
2019-01-11T11:53:29.512Z,306.66
2019-01-11T11:54:29.498Z,306.61
2019-01-11T11:55:29.533Z,306.45
2019-01-11T11:56:29.510Z,306.67
2019-01-11T11:57:29.475Z,306.22
2019-01-11T11:58:30.214Z,306.16
2019-01-11T11:59:29.447Z,306.39
2019-01-11T12:00:29.473Z,306.52
2019-01-11T12:01:29.443Z,306.50
2019-01-11T12:02:29.424Z,306.37
2019-01-11T12:03:29.444Z,306.07
2019-01-11T12:04:29.399Z,306.59
2019-01-11T12:05:29.409Z,306.73
2019-01-11T12:06:29.397Z,306.41
2019-01-11T12:07:29.350Z,306.97
2019-01-11T12:08:29.373Z,306.37
2019-01-11T12:09:29.340Z,306.84
2019-01-11T12:10:29.378Z,306.26
2019-01-11T12:11:29.326Z,305.57
2019-01-11T12:12:29.314Z,306.04
2019-01-11T12:13:29.316Z,305.78
2019-01-11T12:14:29.277Z,306.49
2019-01-11T12:15:29.305Z,305.97
2019-01-11T12:16:29.287Z,306.59
2019-01-11T12:17:29.258Z,305.77
2019-01-11T12:18:29.277Z,306.40
2019-01-11T12:19:29.226Z,306.04
2019-01-11T12:20:29.234Z,306.48
2019-01-11T12:21:29.220Z,306.69
2019-01-11T12:22:29.225Z,306.03
2019-01-11T12:23:29.195Z,306.65
2019-01-11T12:24:29.179Z,305.96
2019-01-11T12:25:29.268Z,305.85
2019-01-11T12:26:29.166Z,306.28
2019-01-11T12:27:29.161Z,306.47
2019-01-11T12:28:29.150Z,305.95
2019-01-11T12:29:29.190Z,306.15
2019-01-11T12:30:29.146Z,306.15